createdAt,value
2023-02-26T00:01:44.332Z,0.93
2023-02-26T00:04:13.022Z,0.55
2023-02-26T00:06:52.553Z,0.73
2023-02-26T00:09:23.368Z,0.40
2023-02-26T00:11:51.963Z,0.50
2023-02-26T00:14:21.364Z,0.50
2023-02-26T00:16:56.816Z,0.70
2023-02-26T00:19:25.638Z,0.63
2023-02-26T00:21:54.804Z,0.97
2023-02-26T00:24:24.346Z,0.80
2023-02-26T00:26:52.968Z,0.60
2023-02-26T00:29:21.645Z,0.70
2023-02-26T00:31:50.841Z,0.50
2023-02-26T00:34:19.594Z,0.80
2023-02-26T00:36:53.629Z,0.40
2023-02-26T00:39:37.849Z,0.87
2023-02-26T00:42:07.058Z,1.00
2023-02-26T00:44:35.786Z,0.50
2023-02-26T00:47:11.532Z,0.67
2023-02-26T00:49:51.188Z,0.70
2023-02-26T00:52:28.023Z,0.40
2023-02-26T00:54:57.543Z,0.40
2023-02-26T00:57:25.976Z,0.50
2023-02-26T00:59:54.556Z,0.50
2023-02-26T01:02:23.038Z,0.40
2023-02-26T01:04:51.756Z,0.50
2023-02-26T01:07:24.291Z,0.77
2023-02-26T01:09:53.456Z,0.60
2023-02-26T01:12:23.876Z,0.60
2023-02-26T01:14:53.018Z,0.60
2023-02-26T01:17:26.841Z,0.70
2023-02-26T01:19:58.875Z,0.70
2023-02-26T01:22:32.279Z,0.70
2023-02-26T01:25:04.775Z,0.70
2023-02-26T01:27:35.405Z,0.70
2023-02-26T01:30:04.536Z,0.53
2023-02-26T01:32:44.750Z,0.50
2023-02-26T01:35:24.806Z,0.55
2023-02-26T01:38:03.961Z,0.63
2023-02-26T01:41:24.868Z,0.93
2023-02-26T01:44:06.086Z,0.80
2023-02-26T01:46:41.791Z,0.60
2023-02-26T01:49:14.982Z,0.70
2023-02-26T01:51:49.711Z,1.03
2023-02-26T01:54:21.892Z,0.60
2023-02-26T01:56:54.576Z,0.63
2023-02-26T01:59:25.597Z,0.90
2023-02-26T02:01:55.064Z,0.90
2023-02-26T02:04:25.679Z,0.83
2023-02-26T02:06:54.857Z,0.50
2023-02-26T02:09:23.496Z,0.73
2023-02-26T02:12:14.002Z,0.80
2023-02-26T02:14:55.586Z,0.77
2023-02-26T02:17:31.544Z,0.30
2023-02-26T02:20:44.715Z,0.40
2023-02-26T02:23:19.115Z,0.97
2023-02-26T02:26:20.974Z,0.20
2023-02-26T02:29:09.359Z,0.63
2023-02-26T02:31:45.547Z,0.77
2023-02-26T02:34:17.342Z,0.77
2023-02-26T02:36:50.573Z,0.60
2023-02-26T02:39:23.349Z,0.60
2023-02-26T02:41:57.066Z,0.77
2023-02-26T02:44:28.998Z,0.90
2023-02-26T02:47:01.750Z,0.50
2023-02-26T02:49:35.376Z,0.40
2023-02-26T02:52:11.275Z,0.50
2023-02-26T02:54:45.091Z,0.70
2023-02-26T02:57:19.305Z,0.50
2023-02-26T02:59:50.514Z,0.50
2023-02-26T03:02:28.323Z,0.70
2023-02-26T03:04:57.369Z,0.60
2023-02-26T03:07:25.728Z,0.90
2023-02-26T03:09:55.160Z,0.60
2023-02-26T03:12:23.662Z,0.57
2023-02-26T03:14:51.958Z,0.60
2023-02-26T03:17:28.536Z,0.40
2023-02-26T03:20:10.916Z,0.47
2023-02-26T03:22:44.712Z,0.67
2023-02-26T03:25:19.158Z,0.63
2023-02-26T03:27:53.657Z,0.50
2023-02-26T03:30:28.068Z,0.60
2023-02-26T03:33:04.791Z,1.00
2023-02-26T03:35:39.757Z,0.43
2023-02-26T03:38:11.923Z,0.60
2023-02-26T03:40:47.296Z,0.80
2023-02-26T03:43:20.755Z,0.63
2023-02-26T03:45:52.191Z,0.63
2023-02-26T03:48:28.314Z,0.70
2023-02-26T03:51:01.501Z,0.47
2023-02-26T03:53:34.155Z,0.50
2023-02-26T03:56:08.688Z,0.40
2023-02-26T03:58:36.930Z,0.40
2023-02-26T04:01:10.910Z,0.70
2023-02-26T04:03:47.180Z,0.63
2023-02-26T04:06:15.921Z,0.40
2023-02-26T04:08:44.790Z,0.60
2023-02-26T04:11:17.578Z,0.60
2023-02-26T04:13:46.036Z,0.60
2023-02-26T04:16:14.537Z,0.50
2023-02-26T04:18:44.802Z,0.30
2023-02-26T04:21:14.157Z,0.43
2023-02-26T04:23:42.743Z,0.40
2023-02-26T04:26:11.007Z,0.50
2023-02-26T04:28:39.458Z,0.60
2023-02-26T04:31:09.576Z,0.63
2023-02-26T04:33:38.465Z,0.60
2023-02-26T04:36:09.323Z,0.88
2023-02-26T04:38:37.802Z,0.63
2023-02-26T04:41:06.414Z,0.40
2023-02-26T04:43:35.734Z,0.60
2023-02-26T04:46:04.257Z,0.50
2023-02-26T04:48:32.782Z,0.20
2023-02-26T04:51:00.940Z,0.60
2023-02-26T04:53:30.846Z,0.40
2023-02-26T04:55:59.019Z,0.63
2023-02-26T04:58:27.454Z,0.40
2023-02-26T05:00:56.258Z,0.50
2023-02-26T05:03:24.845Z,0.50
2023-02-26T05:05:53.042Z,0.53
2023-02-26T05:08:21.604Z,0.23
2023-02-26T05:10:52.454Z,0.30
2023-02-26T05:13:21.306Z,0.53
2023-02-26T05:15:49.791Z,0.60
2023-02-26T05:18:17.966Z,0.50
2023-02-26T05:20:46.519Z,0.73
2023-02-26T05:23:14.985Z,0.23
2023-02-26T05:25:43.129Z,0.40
2023-02-26T05:28:14.457Z,0.70
2023-02-26T05:30:42.872Z,0.23
2023-02-26T05:33:11.402Z,0.90
2023-02-26T05:35:39.547Z,0.47
2023-02-26T05:38:07.693Z,0.50
2023-02-26T05:40:36.254Z,0.73
2023-02-26T05:43:05.145Z,0.50
2023-02-26T05:45:34.672Z,0.80
2023-02-26T05:48:03.600Z,0.60
2023-02-26T05:50:31.756Z,0.60
2023-02-26T05:53:00.221Z,0.90
2023-02-26T05:55:28.375Z,0.70
2023-02-26T05:57:56.870Z,0.67
2023-02-26T06:00:25.237Z,0.50
2023-02-26T06:02:55.448Z,0.63
2023-02-26T06:05:23.767Z,0.70
2023-02-26T06:07:52.425Z,0.50
2023-02-26T06:10:21.150Z,0.40
2023-02-26T06:12:49.334Z,0.43
2023-02-26T06:15:17.503Z,0.40
2023-02-26T06:17:46.138Z,0.70
2023-02-26T06:20:15.964Z,0.40
2023-02-26T06:22:44.436Z,0.50
2023-02-26T06:25:12.623Z,0.60
2023-02-26T06:27:41.170Z,0.50
2023-02-26T06:30:10.597Z,0.50
2023-02-26T06:32:39.179Z,0.77
2023-02-26T06:35:08.376Z,0.80
2023-02-26T06:37:38.617Z,0.77
2023-02-26T06:40:08.225Z,0.30
2023-02-26T06:42:36.665Z,0.50
2023-02-26T06:45:05.839Z,0.57
2023-02-26T06:47:34.009Z,0.53
2023-02-26T06:50:03.306Z,0.50
2023-02-26T06:52:31.484Z,0.80
2023-02-26T06:55:01.017Z,0.80
2023-02-26T06:57:29.475Z,0.53
2023-02-26T06:59:57.640Z,0.60
2023-02-26T07:02:25.924Z,0.50
2023-02-26T07:04:54.162Z,0.80
2023-02-26T07:07:22.302Z,0.40
2023-02-26T07:09:50.893Z,0.60
2023-02-26T07:12:20.442Z,0.45
2023-02-26T07:14:48.652Z,0.70
2023-02-26T07:17:20.586Z,0.60
2023-02-26T07:19:50.107Z,0.57
2023-02-26T07:22:21.636Z,0.57
2023-02-26T07:24:51.374Z,0.60
2023-02-26T07:27:21.426Z,0.30
2023-02-26T07:29:49.600Z,0.73
2023-02-26T07:32:17.831Z,0.60
2023-02-26T07:34:46.084Z,0.60
2023-02-26T07:37:14.244Z,0.90
2023-02-26T07:39:42.768Z,0.55
2023-02-26T07:42:11.275Z,0.52
2023-02-26T07:44:41.311Z,0.93
2023-02-26T07:47:10.112Z,0.60
2023-02-26T07:49:38.429Z,0.80
2023-02-26T07:52:08.507Z,1.60
2023-02-26T07:54:37.002Z,0.35
2023-02-26T07:57:05.823Z,0.50
2023-02-26T07:59:34.337Z,0.60
2023-02-26T08:02:03.871Z,0.50
2023-02-26T08:04:34.060Z,0.47
2023-02-26T08:07:02.327Z,0.60
2023-02-26T08:09:31.846Z,0.55
2023-02-26T08:12:00.355Z,0.57
2023-02-26T08:14:28.573Z,0.65
2023-02-26T08:16:56.756Z,0.50
2023-02-26T08:19:26.347Z,0.43
2023-02-26T08:21:56.062Z,0.40
2023-02-26T08:24:24.297Z,0.40
2023-02-26T08:26:53.042Z,0.50
2023-02-26T08:29:21.569Z,0.50
2023-02-26T08:31:50.224Z,0.82
2023-02-26T08:34:18.507Z,0.75
2023-02-26T08:36:48.041Z,0.32
2023-02-26T08:39:16.599Z,0.90
2023-02-26T08:41:44.828Z,0.88
2023-02-26T08:44:12.999Z,0.80
2023-02-26T08:46:41.246Z,0.50
2023-02-26T08:49:09.947Z,0.70
2023-02-26T08:51:38.172Z,0.70
2023-02-26T08:54:09.365Z,1.25
2023-02-26T08:56:37.496Z,0.47
2023-02-26T08:59:05.767Z,0.40
2023-02-26T09:01:34.513Z,0.90
2023-02-26T09:04:02.725Z,0.75
2023-02-26T09:06:30.908Z,0.80
2023-02-26T09:08:59.364Z,0.73
2023-02-26T09:11:30.861Z,0.77
2023-02-26T09:13:59.500Z,0.90
2023-02-26T09:16:28.483Z,0.77
2023-02-26T09:18:57.179Z,0.63
2023-02-26T09:21:25.352Z,2.00
2023-02-26T09:23:53.550Z,1.05
2023-02-26T09:26:21.711Z,1.52
2023-02-26T09:28:51.412Z,0.90
2023-02-26T09:31:19.849Z,1.00
2023-02-26T09:33:48.093Z,0.60
2023-02-26T09:36:16.639Z,0.73
2023-02-26T09:38:46.300Z,1.00
2023-02-26T09:41:20.049Z,0.65
2023-02-26T09:44:11.019Z,9.05
2023-02-26T09:46:45.764Z,2.15
2023-02-26T09:49:23.358Z,5.28
2023-02-26T09:51:55.544Z,1.75
2023-02-26T09:54:29.081Z,1.77
2023-02-26T09:57:00.859Z,0.95
2023-02-26T09:59:34.616Z,0.75
2023-02-26T10:02:14.164Z,1.45
2023-02-26T10:04:56.387Z,0.85
2023-02-26T10:07:34.863Z,0.98
2023-02-26T10:10:12.633Z,0.80
2023-02-26T10:12:43.462Z,1.08
2023-02-26T10:15:16.702Z,0.90
2023-02-26T10:17:59.082Z,0.57
2023-02-26T10:20:32.663Z,0.70
2023-02-26T10:23:06.105Z,0.50
2023-02-26T10:25:39.575Z,0.65
2023-02-26T10:28:22.194Z,1.77
2023-02-26T10:30:56.992Z,0.73
2023-02-26T10:33:35.323Z,0.20
2023-02-26T10:36:12.314Z,0.45
2023-02-26T10:38:40.526Z,0.57
2023-02-26T10:41:14.623Z,0.10
2023-02-26T10:43:45.178Z,0.70
2023-02-26T10:46:25.565Z,0.35
2023-02-26T10:49:14.680Z,0.52
2023-02-26T10:51:43.227Z,1.00
2023-02-26T10:54:18.097Z,1.05
2023-02-26T10:56:46.374Z,2.35
2023-02-26T10:59:16.717Z,2.13
2023-02-26T11:01:47.442Z,2.03
2023-02-26T11:04:18.847Z,0.60
2023-02-26T11:06:50.183Z,0.35
2023-02-26T11:09:23.748Z,0.90
2023-02-26T11:11:54.745Z,0.43
2023-02-26T11:14:26.185Z,0.40
2023-02-26T11:16:59.206Z,0.73
2023-02-26T11:19:31.393Z,0.60
2023-02-26T11:22:02.258Z,0.63
2023-02-26T11:24:33.716Z,0.20
2023-02-26T11:27:04.584Z,0.32
2023-02-26T11:29:39.576Z,0.52
2023-02-26T11:32:17.589Z,0.40
2023-02-26T11:34:49.424Z,0.25
2023-02-26T11:37:22.410Z,0.45
2023-02-26T11:39:59.303Z,0.40
2023-02-26T11:42:28.872Z,0.30
2023-02-26T11:44:59.202Z,0.95
2023-02-26T11:47:32.241Z,0.75
2023-02-26T11:50:05.708Z,0.65
2023-02-26T11:52:36.957Z,0.60
2023-02-26T11:55:07.793Z,0.20
2023-02-26T11:57:37.289Z,0.50
2023-02-26T12:00:20.168Z,0.50
2023-02-26T12:02:49.798Z,0.68
2023-02-26T12:05:19.276Z,0.45
2023-02-26T12:07:49.225Z,0.52
2023-02-26T12:10:23.908Z,0.88
2023-02-26T12:13:03.187Z,0.30
2023-02-26T12:15:39.120Z,0.47
2023-02-26T12:18:30.811Z,0.28
2023-02-26T12:21:09.994Z,0.38
2023-02-26T12:24:25.904Z,0.82
2023-02-26T12:27:01.037Z,0.60
2023-02-26T12:29:59.615Z,0.47
2023-02-26T12:32:44.004Z,0.65
2023-02-26T12:35:39.758Z,0.45
2023-02-26T12:38:21.295Z,0.50
2023-02-26T12:41:06.519Z,0.82
2023-02-26T12:43:42.223Z,0.70
2023-02-26T12:46:23.538Z,0.60
2023-02-26T12:49:07.176Z,0.28
2023-02-26T12:51:49.626Z,0.30
2023-02-26T12:54:45.427Z,0.30
2023-02-26T12:57:48.527Z,0.40
2023-02-26T13:00:39.866Z,0.40
2023-02-26T13:03:36.699Z,0.85
2023-02-26T13:06:40.979Z,0.70
2023-02-26T13:09:19.138Z,0.70
2023-02-26T13:11:59.386Z,0.60
2023-02-26T13:14:38.507Z,0.65
2023-02-26T13:17:14.786Z,0.38
2023-02-26T13:19:48.549Z,0.68
2023-02-26T13:22:21.632Z,0.80
2023-02-26T13:24:56.600Z,0.73
2023-02-26T13:27:29.056Z,0.63
2023-02-26T13:30:15.804Z,0.30
2023-02-26T13:32:45.378Z,0.50
2023-02-26T13:35:23.108Z,0.85
2023-02-26T13:37:54.854Z,0.50
2023-02-26T13:40:47.534Z,0.50
2023-02-26T13:43:34.826Z,0.40
2023-02-26T13:46:14.588Z,0.28
2023-02-26T13:48:49.657Z,0.40
2023-02-26T13:51:30.301Z,0.40
2023-02-26T13:54:01.270Z,0.20
2023-02-26T13:56:53.509Z,0.30
2023-02-26T13:59:46.930Z,0.40
2023-02-26T14:02:37.387Z,0.40
2023-02-26T14:05:29.333Z,0.20
2023-02-26T14:08:19.602Z,0.40
2023-02-26T14:10:55.309Z,0.50
2023-02-26T14:13:31.745Z,0.47
2023-02-26T14:16:02.258Z,0.30
2023-02-26T14:18:42.794Z,0.40
2023-02-26T14:21:39.581Z,0.38
2023-02-26T14:24:17.429Z,0.60
2023-02-26T14:26:48.636Z,0.20
2023-02-26T14:29:22.915Z,0.40
2023-02-26T14:32:07.326Z,0.70
2023-02-26T14:34:38.662Z,0.60
2023-02-26T14:37:11.855Z,0.75
2023-02-26T14:39:44.238Z,0.40
2023-02-26T14:42:18.202Z,0.40
2023-02-26T14:44:50.535Z,0.30
2023-02-26T14:47:19.154Z,0.30
2023-02-26T14:49:49.570Z,0.30
2023-02-26T14:52:45.165Z,0.50
2023-02-26T14:55:34.566Z,0.65
2023-02-26T14:58:16.839Z,0.40
2023-02-26T15:00:53.784Z,0.30
2023-02-26T15:04:00.956Z,0.40
2023-02-26T15:06:51.451Z,0.60
2023-02-26T15:09:23.396Z,0.30
2023-02-26T15:12:06.516Z,0.57
2023-02-26T15:14:56.667Z,1.05
2023-02-26T15:17:40.611Z,0.20
2023-02-26T15:20:21.976Z,0.85
2023-02-26T15:23:12.745Z,1.00
2023-02-26T15:25:44.069Z,2.38
2023-02-26T15:28:16.947Z,3.30
2023-02-26T15:30:48.758Z,1.58
2023-02-26T15:33:21.728Z,1.00
2023-02-26T15:35:51.894Z,0.85
2023-02-26T15:38:20.624Z,0.40
2023-02-26T15:40:52.026Z,1.38
2023-02-26T15:43:25.346Z,0.70
2023-02-26T15:45:55.669Z,0.70
2023-02-26T15:48:30.793Z,0.60
2023-02-26T15:51:01.739Z,0.82
2023-02-26T15:53:34.009Z,0.22
2023-02-26T15:56:05.951Z,0.40
2023-02-26T15:58:39.105Z,0.80
2023-02-26T16:01:07.759Z,0.47
2023-02-26T16:03:39.306Z,0.75
2023-02-26T16:06:12.552Z,0.40
2023-02-26T16:08:40.913Z,0.82
2023-02-26T16:11:09.668Z,0.45
2023-02-26T16:13:42.511Z,0.70
2023-02-26T16:16:17.658Z,0.43
2023-02-26T16:18:47.948Z,0.80
2023-02-26T16:21:24.780Z,0.40
2023-02-26T16:23:56.064Z,0.75
2023-02-26T16:26:28.989Z,0.60
2023-02-26T16:29:01.867Z,0.50
2023-02-26T16:31:33.641Z,0.75
2023-02-26T16:34:05.309Z,0.17
2023-02-26T16:36:38.373Z,1.00
2023-02-26T16:39:18.199Z,0.82
2023-02-26T16:41:49.888Z,0.55
2023-02-26T16:44:47.013Z,0.38
2023-02-26T16:47:16.844Z,0.88
2023-02-26T16:49:46.666Z,0.50
2023-02-26T16:52:20.058Z,0.45
2023-02-26T16:54:57.466Z,0.50
2023-02-26T16:57:30.746Z,0.50
2023-02-26T17:00:01.789Z,1.10
2023-02-26T17:02:34.632Z,1.02
2023-02-26T17:05:22.595Z,0.55
2023-02-26T17:07:58.815Z,1.30
2023-02-26T17:10:33.282Z,0.73
2023-02-26T17:13:13.435Z,0.30
2023-02-26T17:15:42.072Z,1.20
2023-02-26T17:18:10.609Z,0.90
2023-02-26T17:20:41.813Z,1.00
2023-02-26T17:23:10.839Z,0.95
2023-02-26T17:25:42.835Z,1.23
2023-02-26T17:28:13.820Z,0.75
2023-02-26T17:30:42.056Z,0.90
2023-02-26T17:33:14.372Z,0.77
2023-02-26T17:35:45.267Z,1.00
2023-02-26T17:38:15.305Z,1.25
2023-02-26T17:40:45.698Z,1.35
2023-02-26T17:43:13.960Z,1.13
2023-02-26T17:45:43.092Z,0.50
2023-02-26T17:48:14.987Z,0.98
2023-02-26T17:50:48.677Z,1.20
2023-02-26T17:53:18.028Z,0.90
2023-02-26T17:55:47.477Z,0.90
2023-02-26T17:58:18.566Z,1.20
2023-02-26T18:00:50.157Z,1.00
2023-02-26T18:03:18.691Z,1.48
2023-02-26T18:05:49.537Z,1.48
2023-02-26T18:08:22.020Z,1.00
2023-02-26T18:10:50.771Z,1.20
2023-02-26T18:13:19.053Z,0.88
2023-02-26T18:15:47.672Z,1.45
2023-02-26T18:18:17.037Z,1.15
2023-02-26T18:20:46.411Z,0.80
2023-02-26T18:23:16.806Z,0.73
2023-02-26T18:25:46.824Z,0.70
2023-02-26T18:28:17.496Z,1.30
2023-02-26T18:30:46.217Z,1.13
2023-02-26T18:33:17.077Z,1.20
2023-02-26T18:35:47.351Z,1.70
2023-02-26T18:38:18.712Z,2.38
2023-02-26T18:40:49.111Z,2.45
2023-02-26T18:43:17.645Z,2.25
2023-02-26T18:45:47.890Z,2.70
2023-02-26T18:48:18.574Z,1.80
2023-02-26T18:50:47.894Z,1.80
2023-02-26T18:53:23.054Z,1.83
2023-02-26T18:55:53.221Z,1.90
2023-02-26T18:58:21.423Z,1.83
2023-02-26T19:00:50.079Z,2.20
2023-02-26T19:03:18.383Z,1.83
2023-02-26T19:05:46.569Z,2.25
2023-02-26T19:08:15.596Z,2.28
2023-02-26T19:10:45.178Z,1.80
2023-02-26T19:13:13.781Z,1.60
2023-02-26T19:15:42.402Z,1.50
2023-02-26T19:18:12.676Z,1.33
2023-02-26T19:20:41.737Z,1.40
2023-02-26T19:23:10.180Z,1.27
2023-02-26T19:25:39.638Z,1.25
2023-02-26T19:28:11.175Z,1.33
2023-02-26T19:30:40.215Z,1.25
2023-02-26T19:33:08.550Z,1.05
2023-02-26T19:35:37.667Z,1.55
2023-02-26T19:38:06.178Z,1.40
2023-02-26T19:40:34.643Z,0.90
2023-02-26T19:43:03.007Z,1.40
2023-02-26T19:45:33.030Z,1.33
2023-02-26T19:48:01.219Z,1.10
2023-02-26T19:50:29.629Z,1.30
2023-02-26T19:52:58.642Z,1.17
2023-02-26T19:55:26.825Z,1.20
2023-02-26T19:57:55.071Z,1.10
2023-02-26T20:00:23.752Z,1.48
2023-02-26T20:02:53.430Z,1.27
2023-02-26T20:05:21.708Z,1.50
2023-02-26T20:07:49.906Z,1.30
2023-02-26T20:10:20.080Z,1.40
2023-02-26T20:12:48.227Z,1.30
2023-02-26T20:15:17.126Z,1.40
2023-02-26T20:17:45.304Z,1.90
2023-02-26T20:20:15.545Z,2.03
2023-02-26T20:22:43.728Z,1.80
2023-02-26T20:25:11.938Z,1.63
2023-02-26T20:27:40.182Z,1.58
2023-02-26T20:30:10.336Z,1.40
2023-02-26T20:32:38.855Z,1.60
2023-02-26T20:35:08.419Z,1.40
2023-02-26T20:37:38.059Z,1.15
2023-02-26T20:40:07.376Z,0.90
2023-02-26T20:42:36.025Z,1.20
2023-02-26T20:45:04.441Z,1.45
2023-02-26T20:47:32.847Z,1.47
2023-02-26T20:50:01.048Z,1.75
2023-02-26T20:52:29.477Z,1.30
2023-02-26T20:54:59.017Z,1.70
2023-02-26T20:57:27.537Z,1.58
2023-02-26T20:59:55.680Z,1.40
2023-02-26T21:02:24.209Z,1.80
2023-02-26T21:04:52.469Z,1.48
2023-02-26T21:07:23.018Z,1.30
2023-02-26T21:09:52.153Z,1.43
2023-02-26T21:12:21.804Z,1.43
2023-02-26T21:14:51.424Z,1.50
2023-02-26T21:17:19.752Z,1.20
2023-02-26T21:19:47.960Z,1.43
2023-02-26T21:22:16.191Z,1.20
2023-02-26T21:24:44.736Z,1.53
2023-02-26T21:27:13.657Z,1.60
2023-02-26T21:29:43.519Z,1.60
2023-02-26T21:32:11.857Z,1.50
2023-02-26T21:34:40.190Z,1.52
2023-02-26T21:37:11.262Z,1.57
2023-02-26T21:39:40.273Z,1.90
2023-02-26T21:42:10.379Z,1.77
2023-02-26T21:44:38.692Z,2.20
2023-02-26T21:47:08.636Z,1.57
2023-02-26T21:49:36.907Z,1.57
2023-02-26T21:52:07.626Z,1.80
2023-02-26T21:54:36.218Z,1.60
2023-02-26T21:57:04.704Z,1.87
2023-02-26T21:59:33.183Z,2.17
2023-02-26T22:02:01.366Z,2.67
2023-02-26T22:04:31.841Z,2.67
2023-02-26T22:07:00.067Z,2.80
2023-02-26T22:09:28.470Z,2.43
2023-02-26T22:11:56.711Z,2.90
2023-02-26T22:14:24.906Z,3.53
2023-02-26T22:16:53.558Z,3.70
2023-02-26T22:19:21.824Z,3.90
2023-02-26T22:21:51.392Z,4.13
2023-02-26T22:24:19.565Z,3.07
2023-02-26T22:26:49.399Z,2.93
2023-02-26T22:29:19.382Z,2.13
2023-02-26T22:31:48.790Z,2.67
2023-02-26T22:34:17.254Z,2.10
2023-02-26T22:36:45.650Z,1.63
2023-02-26T22:39:15.528Z,1.83
2023-02-26T22:41:44.031Z,1.70
2023-02-26T22:44:13.909Z,1.77
2023-02-26T22:46:42.316Z,1.77
2023-02-26T22:49:10.877Z,1.70
2023-02-26T22:51:39.309Z,1.77
2023-02-26T22:54:07.586Z,1.50
2023-02-26T22:56:37.481Z,1.83
2023-02-26T22:59:06.500Z,1.47
2023-02-26T23:01:34.731Z,1.47
2023-02-26T23:04:02.915Z,1.70
2023-02-26T23:06:31.438Z,2.03
2023-02-26T23:09:00.135Z,1.50
2023-02-26T23:11:29.063Z,1.47
2023-02-26T23:13:59.082Z,1.30
2023-02-26T23:16:27.384Z,0.97
2023-02-26T23:18:55.635Z,1.30
2023-02-26T23:21:23.926Z,1.50
2023-02-26T23:23:52.394Z,1.60
2023-02-26T23:26:20.602Z,1.20
2023-02-26T23:28:49.142Z,1.30
2023-02-26T23:31:18.773Z,1.23
2023-02-26T23:33:47.330Z,1.57
2023-02-26T23:36:15.730Z,1.20
2023-02-26T23:38:44.515Z,1.43
2023-02-26T23:41:12.732Z,1.20
2023-02-26T23:43:40.940Z,1.07
2023-02-26T23:46:09.438Z,1.57
2023-02-26T23:48:39.048Z,1.30
2023-02-26T23:51:07.641Z,0.90
2023-02-26T23:53:36.016Z,1.10
2023-02-26T23:56:04.243Z,1.20
2023-02-26T23:58:32.940Z,1.17
